»·PEaware :: N973SE L52-CL46

N973SE :: L52-CL46

FLIGHT INFORMATION

Flight Status: Arrived
Operator: Privately registered:
United States
More flights under this callsign
Pilot: Stig E. (4778)
Aircraft: CESSNA 172 SKYHAWK
(C172)
More flights by this aircraft type
Origin: L52 Oceano Co
United States
Destination: CL46 Quail Lake Sky Park
Canada
More flights between these airports :: More routes between these airports
Route: FLW GMN
File this flight plan on PilotEdge
Remarks:
Altitude:
(Current/Filed)
9,500ft
Speed:
(Current/Filed)
110kts
Departed: 24-Mar-19 10:49 PM
Arrived: 24-Mar-19 11:45 PM
Distance/Time
Traveled:
95nm/0:56
Distance/Time
To Go:
Arrived

Flight Plot

Page will automatically refresh every two minutes.

Flight plan parsing failed; only flown route is shown


Map Options




Map Legend


Flown Route
Filed Route
Departure Airport
Arrival Airport
Navaid (VOR, NDB)
Fix

Horizontal Profiles

Position Reports

Time Latitude Longitude Heading Altitude Ground
Speed
24-Mar-19 22:43 35.102275 -120.622530 211 16ft 0kts
24-Mar-19 22:44 35.102275 -120.622530 211 16ft 0kts
24-Mar-19 22:45 35.101705 -120.622239 219 16ft 12kts
24-Mar-19 22:46 35.099474 -120.619340 22 17ft 0kts
24-Mar-19 22:47 35.099745 -120.619261 3 17ft 8kts
24-Mar-19 22:48 35.108232 -120.635849 301 708ft 66kts
24-Mar-19 22:49 35.100418 -120.654530 186 1625ft 83kts
24-Mar-19 22:50 35.092685 -120.632525 83 2563ft 84kts
24-Mar-19 22:51 35.094050 -120.603711 85 3428ft 86kts
24-Mar-19 22:52 35.094861 -120.574253 86 4201ft 88kts
24-Mar-19 22:53 35.095338 -120.543902 86 4945ft 90kts
24-Mar-19 22:54 35.095610 -120.512952 87 5688ft 92kts
24-Mar-19 22:55 35.095770 -120.481287 88 6514ft 94kts
24-Mar-19 22:56 35.095844 -120.448988 89 7292ft 96kts
24-Mar-19 22:57 35.095863 -120.415911 90 8031ft 98kts
24-Mar-19 22:58 35.095846 -120.382350 91 8732ft 99kts
24-Mar-19 22:59 35.095804 -120.348396 93 9389ft 100kts
24-Mar-19 23:00 35.095433 -120.308226 92 9510ft 134kts
24-Mar-19 23:01 35.095157 -120.262522 92 9506ft 129kts
24-Mar-19 23:02 35.094966 -120.220156 92 9508ft 127kts
24-Mar-19 23:03 35.094796 -120.176854 92 9508ft 127kts
24-Mar-19 23:04 35.088590 -120.135133 112 9499ft 125kts
24-Mar-19 23:05 35.078733 -120.096625 112 9519ft 113kts
24-Mar-19 23:06 35.070104 -120.059936 111 9522ft 110kts
24-Mar-19 23:07 35.061964 -120.023822 110 9523ft 109kts
24-Mar-19 23:08 35.053905 -119.987341 109 9527ft 117kts
24-Mar-19 23:09 35.045134 -119.947228 109 9527ft 125kts
24-Mar-19 23:10 35.036078 -119.905585 109 9499ft 127kts
24-Mar-19 23:11 35.027016 -119.863837 109 9499ft 126kts
24-Mar-19 23:12 35.017958 -119.822137 109 9499ft 126kts
24-Mar-19 23:13 35.008916 -119.780578 109 9499ft 126kts
24-Mar-19 23:15 34.999842 -119.738949 109 9496ft 127kts
24-Mar-19 23:16 34.990706 -119.697114 109 9488ft 127kts
24-Mar-19 23:17 34.981529 -119.655162 108 9480ft 128kts
24-Mar-19 23:18 34.972263 -119.612883 108 9472ft 128kts
24-Mar-19 23:19 34.963021 -119.570757 108 9478ft 124kts
24-Mar-19 23:20 34.954674 -119.532712 109 9454ft 110kts
24-Mar-19 23:21 34.946744 -119.496710 109 9452ft 108kts
24-Mar-19 23:22 34.938937 -119.461301 110 9491ft 105kts
24-Mar-19 23:23 34.931174 -119.426195 110 9496ft 107kts
24-Mar-19 23:24 34.923321 -119.390710 110 9494ft 108kts
24-Mar-19 23:25 34.915408 -119.355008 110 9492ft 108kts
24-Mar-19 23:26 34.907274 -119.319303 111 9491ft 109kts
24-Mar-19 23:27 34.899159 -119.283466 111 9491ft 109kts
24-Mar-19 23:28 34.890959 -119.247423 110 9492ft 110kts
24-Mar-19 23:29 34.882800 -119.211223 110 9492ft 110kts
24-Mar-19 23:30 34.874647 -119.174904 110 9493ft 110kts
24-Mar-19 23:31 34.866539 -119.138737 110 9494ft 110kts
24-Mar-19 23:32 34.858466 -119.102723 110 9495ft 110kts
24-Mar-19 23:33 34.850339 -119.066504 110 9496ft 110kts
24-Mar-19 23:34 34.842508 -119.031100 110 9319ft 104kts
24-Mar-19 23:35 34.836605 -118.996844 106 8617ft 99kts
24-Mar-19 23:36 34.831033 -118.964453 106 7919ft 97kts
24-Mar-19 23:36 34.826119 -118.937632 106 7338ft 97kts
24-Mar-19 23:38 34.816217 -118.901250 117 6522ft 97kts
24-Mar-19 23:38 34.806565 -118.876377 117 5941ft 98kts
24-Mar-19 23:39 34.794842 -118.846376 116 5256ft 98kts
24-Mar-19 23:41 34.781753 -118.812714 116 4470ft 85kts
24-Mar-19 23:41 34.776299 -118.795211 101 4420ft 58kts
24-Mar-19 23:42 34.773677 -118.772198 103 4338ft 69kts
24-Mar-19 23:43 34.769772 -118.748762 102 3754ft 71kts
24-Mar-19 23:44 34.767535 -118.730707 99 3374ft 26kts
24-Mar-19 23:45 34.767663 -118.731696 277 3374ft 22kts
24-Mar-19 23:46 34.767269 -118.736185 190 3374ft 10kts
24-Mar-19 23:47 34.767223 -118.736014 18 3374ft 0kts

Navigation Log

Ident Type
Flight plan parsing failed, navigation log unavailable